Аэропорт: Нахичевань. Нахичевань

ICAO: UBBN

METAR:
2019-11-21 01:30:00
UBBN 210130Z 03004KT 9999 NSC M04/M08 Q1020 R14R/CLRD// NOSIG RMK MT OP QFE690
METAR:
2019-11-20 23:08:00
TAF UBBN 202308Z 2100/2124 VRB04KT 8000 FEW050 BKN100 TX10/2112Z TNM05/2102Z TEMPO 2100/2104 03008KT TEMPO 2104/2114 13010KT